Time;durP1;ratioP1;P1;durP2;ratioP2;P2;SDS_P1;SDS_P2;PMS_P1;PMS_P2;Temp;Humidity;BMP_temperature;BMP_pressure;BME280_temperature;BME280_humidity;BME280_pressure;Samples;Min_cycle;Max_cycle;Signal;HPM_P1;HPM_P2
2023/05/07 00:01:24;;;;;;;4.13;2.90;;;;;;;;;;5051522;28;20124;-35
2023/05/07 00:03:51;;;;;;;4.28;2.95;;;20.00;70.90;;;;;;5050616;28;20138;-31
2023/05/07 00:06:18;;;;;;;4.88;3.10;;;20.30;70.30;;;;;;5051238;28;20049;-31
2023/05/07 00:08:45;;;;;;;3.97;2.92;;;;;;;;;;5051231;28;20048;-33
2023/05/07 00:11:11;;;;;;;3.60;3.00;;;20.00;71.00;;;;;;5050868;28;20055;-32
2023/05/07 00:13:40;;;;;;;4.10;3.33;;;;;;;;;;5051293;28;20041;-35
2023/05/07 00:16:08;;;;;;;4.25;3.00;;;20.00;54.00;;;;;;5033544;28;20053;-33
2023/05/07 00:18:35;;;;;;;4.00;2.95;;;20.10;70.00;;;;;;5044882;28;20528;-31
2023/05/07 00:21:02;;;;;;;4.28;3.10;;;20.50;70.40;;;;;;5054612;28;20132;-31
2023/05/07 00:23:28;;;;;;;3.58;3.20;;;20.30;70.30;;;;;;5054302;28;20638;-31
2023/05/07 00:25:55;;;;;;;3.38;2.90;;;20.00;63.50;;;;;;5054934;28;20127;-33
2023/05/07 00:28:22;;;;;;;3.67;3.10;;;20.50;70.70;;;;;;5054756;28;20132;-31
2023/05/07 00:30:48;;;;;;;3.45;3.05;;;20.20;70.30;;;;;;5054641;28;20132;-31
2023/05/07 00:33:16;;;;;;;4.72;3.35;;;20.30;52.90;;;;;;5041400;28;20128;-34
2023/05/07 00:35:43;;;;;;;3.33;3.03;;;;;;;;;;5034392;28;20124;-34
2023/05/07 00:38:10;;;;;;;3.85;3.22;;;20.40;71.20;;;;;;5053542;28;20059;-31
2023/05/07 00:40:37;;;;;;;3.45;3.08;;;20.60;70.50;;;;;;5054645;28;20053;-31
2023/05/07 00:43:03;;;;;;;3.88;3.13;;;20.30;58.10;;;;;;5054322;28;20071;-33
2023/05/07 00:45:30;;;;;;;3.47;2.80;;;20.40;70.70;;;;;;5054160;28;20135;-31
2023/05/07 00:47:58;;;;;;;4.13;3.40;;;20.00;70.60;;;;;;5054229;28;20232;-31
2023/05/07 00:50:26;;;;;;;4.22;3.33;;;20.00;71.00;;;;;;5054030;28;20124;-31
2023/05/07 00:52:53;;;;;;;3.58;3.13;;;20.80;71.30;;;;;;5054091;28;20060;-31
2023/05/07 00:55:20;;;;;;;3.65;3.20;;;;;;;;;;5054330;28;20383;-35
2023/05/07 00:57:46;;;;;;;3.90;3.28;;;19.60;70.80;;;;;;5054196;28;20044;-31
2023/05/07 01:00:14;;;;;;;3.25;2.90;;;20.60;70.90;;;;;;5053996;28;20056;-31
2023/05/07 01:02:41;;;;;;;3.53;3.15;;;21.10;70.80;;;;;;5053216;28;20136;-31
2023/05/07 01:05:09;;;;;;;3.75;3.30;;;19.60;70.00;;;;;;5053899;28;20123;-31
2023/05/07 01:07:37;;;;;;;4.13;3.10;;;19.60;70.90;;;;;;5051749;28;20555;-31
2023/05/07 01:10:04;;;;;;;6.45;3.30;;;20.60;70.70;;;;;;5053852;28;20124;-31
2023/05/07 01:12:31;;;;;;;4.22;3.30;;;19.70;70.90;;;;;;5053498;28;20413;-31
2023/05/07 01:14:57;;;;;;;4.53;3.55;;;20.30;70.50;;;;;;5053946;28;20135;-36
2023/05/07 01:17:24;;;;;;;3.65;2.85;;;;;;;;;;5053691;28;20474;-33
2023/05/07 01:19:52;;;;;;;4.95;3.60;;;20.10;70.30;;;;;;5053498;28;20048;-38
2023/05/07 01:22:28;;;;;;;3.50;3.20;;;21.00;70.70;;;;;;5053580;28;20045;-37
2023/05/07 01:24:55;;;;;;;4.57;3.25;;;19.90;61.40;;;;;;5053762;28;20513;-37
2023/05/07 01:27:22;;;;;;;4.28;3.33;;;19.50;70.50;;;;;;5053671;28;20053;-37
2023/05/07 01:29:50;;;;;;;4.05;3.35;;;;;;;;;;5053370;28;20128;-34
2023/05/07 01:32:16;;;;;;;3.97;3.58;;;20.10;71.20;;;;;;5053322;28;20132;-41
2023/05/07 01:34:43;;;;;;;4.45;4.03;;;19.50;58.10;;;;;;5034465;28;20075;-39
2023/05/07 01:37:10;;;;;;;3.83;3.30;;;19.50;67.00;;;;;;5044421;28;20131;-38
2023/05/07 01:39:38;;;;;;;3.97;3.50;;;20.00;70.40;;;;;;5053392;28;20152;-31
2023/05/07 01:42:05;;;;;;;4.13;3.50;;;;;;;;;;5053029;28;20522;-32
2023/05/07 01:44:33;;;;;;;4.75;3.97;;;;;;;;;;5053102;28;20131;-34
2023/05/07 01:47:00;;;;;;;3.80;3.40;;;20.60;70.70;;;;;;5053218;28;20053;-31
2023/05/07 01:49:27;;;;;;;3.70;3.22;;;20.20;70.10;;;;;;5053009;28;20144;-31
2023/05/07 01:51:53;;;;;;;4.10;3.60;;;20.20;61.70;;;;;;5052971;28;20051;-31
2023/05/07 01:54:20;;;;;;;4.53;3.78;;;20.20;71.00;;;;;;5052800;28;20049;-31
2023/05/07 01:56:48;;;;;;;4.47;3.60;;;19.70;70.40;;;;;;5053220;28;20561;-32
2023/05/07 01:59:15;;;;;;;4.50;3.83;;;19.80;70.70;;;;;;5052830;28;20053;-31
2023/05/07 02:01:42;;;;;;;4.07;3.45;;;19.60;61.00;;;;;;5052372;28;20049;-32
2023/05/07 02:04:09;;;;;;;4.10;3.50;;;20.10;70.40;;;;;;5052580;28;20128;-31
2023/05/07 02:06:35;;;;;;;4.55;3.60;;;19.90;70.40;;;;;;5052798;28;20175;-30
2023/05/07 02:09:02;;;;;;;4.60;3.83;;;20.10;62.20;;;;;;5052601;28;20441;-31
2023/05/07 02:11:29;;;;;;;3.85;3.15;;;20.80;64.10;;;;;;5052716;28;20044;-31
2023/05/07 02:13:57;;;;;;;4.72;3.50;;;20.40;71.50;;;;;;5052590;28;20055;-31
2023/05/07 02:16:24;;;;;;;4.28;3.35;;;20.00;70.40;;;;;;5052116;28;20124;-32
2023/05/07 02:18:50;;;;;;;5.07;3.90;;;20.20;60.60;;;;;;5052492;28;20053;-32
2023/05/07 02:21:17;;;;;;;4.40;3.40;;;19.90;71.30;;;;;;5052699;28;20045;-31
2023/05/07 02:23:44;;;;;;;3.83;3.42;;;19.90;71.30;;;;;;5052301;28;20067;-31
2023/05/07 02:26:11;;;;;;;4.28;3.88;;;19.90;61.10;;;;;;5052289;28;20061;-32
2023/05/07 02:28:38;;;;;;;4.78;3.55;;;19.70;70.40;;;;;;5052637;28;20437;-31
2023/05/07 02:31:06;;;;;;;5.20;3.90;;;19.20;62.80;;;;;;5048459;28;20132;-31
2023/05/07 02:33:34;;;;;;;4.53;3.55;;;20.20;58.60;;;;;;5032205;28;20128;-32
2023/05/07 02:36:07;;;;;;;5.15;4.13;;;19.60;63.80;;;;;;5033824;28;20088;-32
2023/05/07 02:38:34;;;;;;;4.03;3.63;;;20.20;56.10;;;;;;5052121;28;20053;-31
2023/05/07 02:41:01;;;;;;;4.88;3.55;;;;;;;;;;5052028;28;20053;-35
2023/05/07 02:43:28;;;;;;;4.22;3.53;;;20.00;70.50;;;;;;5052069;28;20131;-31
2023/05/07 02:46:02;;;;;;;4.72;3.90;;;20.10;70.60;;;;;;5051947;28;20128;-31
2023/05/07 02:48:30;;;;;;;4.30;3.53;;;19.80;52.90;;;;;;5052130;28;20426;-35
2023/05/07 02:50:57;;;;;;;4.05;3.55;;;;;;;;;;5051891;28;20049;-32
2023/05/07 02:53:25;;;;;;;5.25;3.80;;;20.60;70.90;;;;;;5051988;28;20052;-31
2023/05/07 02:55:52;;;;;;;5.50;3.88;;;18.60;69.80;;;;;;5052126;28;20057;-31
2023/05/07 02:58:19;;;;;;;4.15;3.58;;;;;;;;;;5052061;28;20124;-35
2023/05/07 03:00:47;;;;;;;4.95;3.90;;;;;;;;;;5051138;28;20135;-31
2023/05/07 03:03:14;;;;;;;4.43;3.83;;;;;;;;;;5051542;28;20508;-34
2023/05/07 03:05:42;;;;;;;4.95;3.90;;;20.70;70.90;;;;;;5051772;28;20509;-31
2023/05/07 03:08:08;;;;;;;3.90;3.38;;;20.20;71.60;;;;;;5051796;28;20053;-31
2023/05/07 03:10:35;;;;;;;4.82;3.67;;;20.60;71.00;;;;;;5051932;28;20053;-31
2023/05/07 03:13:02;;;;;;;4.75;3.88;;;19.70;68.60;;;;;;5051326;28;20128;-32
2023/05/07 03:15:29;;;;;;;5.75;3.70;;;19.60;70.40;;;;;;5051246;28;20136;-31
2023/05/07 03:17:56;;;;;;;4.53;3.67;;;;;;;;;;5051753;28;20049;-35
2023/05/07 03:20:23;;;;;;;4.10;3.65;;;19.80;71.40;;;;;;5051384;28;20151;-31
2023/05/07 03:22:51;;;;;;;5.20;3.92;;;20.60;71.50;;;;;;5051757;28;20045;-31
2023/05/07 03:25:18;;;;;;;5.00;3.97;;;20.00;59.30;;;;;;5051795;28;20131;-31
2023/05/07 03:27:45;;;;;;;4.43;3.88;;;;;;;;;;5051751;28;20053;-33
2023/05/07 03:30:13;;;;;;;4.13;3.70;;;19.30;71.20;;;;;;5040061;28;20156;-32
2023/05/07 03:32:39;;;;;;;4.35;3.80;;;20.00;70.80;;;;;;5031264;28;20505;-32
2023/05/07 03:35:06;;;;;;;5.70;3.47;;;20.10;70.80;;;;;;5031535;28;20045;-31
2023/05/07 03:37:34;;;;;;;4.45;4.00;;;;;;;;;;5045402;28;20132;-33
2023/05/07 03:40:02;;;;;;;4.28;3.63;;;19.60;52.80;;;;;;5051382;28;20055;-32
2023/05/07 03:42:29;;;;;;;4.28;3.78;;;19.70;71.50;;;;;;5051414;28;20045;-31
2023/05/07 03:44:56;;;;;;;4.32;3.60;;;20.00;70.60;;;;;;5051265;28;20127;-31
2023/05/07 03:47:22;;;;;;;4.25;3.55;;;19.80;70.70;;;;;;5051168;28;20132;-31
2023/05/07 03:49:50;;;;;;;4.00;3.45;;;19.60;58.30;;;;;;5051574;28;20151;-32
2023/05/07 03:52:22;;;;;;;4.50;3.78;;;19.60;71.50;;;;;;5055225;28;20059;-31
2023/05/07 03:54:49;;;;;;;3.75;3.33;;;20.40;71.90;;;;;;5055536;28;20049;-31
2023/05/07 03:57:17;;;;;;;4.13;3.72;;;20.00;70.80;;;;;;5055178;28;20056;-31
2023/05/07 03:59:44;;;;;;;5.97;3.60;;;19.60;71.40;;;;;;5054659;28;20413;-31
2023/05/07 04:02:11;;;;;;;4.15;3.70;;;;;;;;;;5054799;28;20132;-39
2023/05/07 04:04:37;;;;;;;4.03;3.60;;;19.80;55.60;;;;;;5055403;28;20045;-33
2023/05/07 04:07:04;;;;;;;3.90;3.42;;;20.00;70.90;;;;;;5054968;28;20489;-31
2023/05/07 04:09:31;;;;;;;4.38;3.60;;;19.90;71.10;;;;;;5055032;28;20136;-31
2023/05/07 04:11:58;;;;;;;4.28;3.63;;;19.50;55.70;;;;;;5055098;28;20053;-33
2023/05/07 04:14:26;;;;;;;4.65;3.92;;;18.70;63.80;;;;;;5036675;28;20145;-32
2023/05/07 04:16:52;;;;;;;4.43;3.58;;;19.40;71.00;;;;;;5035132;28;20189;-32
2023/05/07 04:19:19;;;;;;;4.28;3.60;;;19.40;70.60;;;;;;5034715;28;20495;-31
2023/05/07 04:21:46;;;;;;;5.28;3.67;;;;;;;;;;5035020;28;20133;-37
2023/05/07 04:24:13;;;;;;;4.15;3.55;;;20.20;71.90;;;;;;5034659;28;20128;-31
2023/05/07 04:26:41;;;;;;;4.68;3.70;;;;;;;;;;5034868;28;20053;-33
2023/05/07 04:29:07;;;;;;;3.97;3.58;;;19.50;71.50;;;;;;5051517;28;20075;-31
2023/05/07 04:31:35;;;;;;;4.18;3.58;;;19.50;52.80;;;;;;5054730;28;20045;-36
2023/05/07 04:34:02;;;;;;;4.68;3.72;;;;;;;;;;5054408;28;20075;-35
2023/05/07 04:36:29;;;;;;;4.03;3.63;;;20.10;70.90;;;;;;5053903;28;20124;-31
2023/05/07 04:38:56;;;;;;;4.72;3.72;;;19.00;71.30;;;;;;5054463;28;20048;-31
2023/05/07 04:41:23;;;;;;;3.80;3.40;;;;;;;;;;5054294;28;20421;-36
2023/05/07 04:43:50;;;;;;;3.95;3.55;;;19.10;70.40;;;;;;5053745;28;20127;-31
2023/05/07 04:46:16;;;;;;;3.85;3.45;;;20.30;71.90;;;;;;5048268;28;20052;-31
2023/05/07 04:48:44;;;;;;;4.72;3.78;;;20.00;62.10;;;;;;5045192;28;20493;-31
2023/05/07 04:51:11;;;;;;;4.00;3.53;;;;;;;;;;5043732;28;20125;-32
2023/05/07 04:53:38;;;;;;;4.30;3.70;;;19.50;71.20;;;;;;5045130;28;20052;-32
2023/05/07 04:56:05;;;;;;;3.92;3.53;;;19.50;52.80;;;;;;5034460;28;20133;-37
2023/05/07 04:58:32;;;;;;;4.07;3.30;;;;;;;;;;5053211;28;20049;-31
2023/05/07 05:01:00;;;;;;;4.40;3.50;;;;;;;;;;5053678;28;20064;-35
2023/05/07 05:03:26;;;;;;;4.00;3.60;;;19.00;71.30;;;;;;5053726;28;20056;-31
2023/05/07 05:05:54;;;;;;;4.05;3.50;;;19.50;52.90;;;;;;5054185;28;20048;-35
2023/05/07 05:08:21;;;;;;;3.67;3.28;;;;;;;;;;5053593;28;20151;-35
2023/05/07 05:10:49;;;;;;;4.10;3.60;;;20.70;71.20;;;;;;5043738;28;20049;-32
2023/05/07 05:13:16;;;;;;;3.60;3.22;;;18.50;70.90;;;;;;5042124;28;20088;-31
2023/05/07 05:15:43;;;;;;;5.80;3.50;;;20.00;71.80;;;;;;5043421;28;20049;-31
2023/05/07 05:18:10;;;;;;;4.03;3.63;;;;;;;;;;5044297;28;20434;-36
2023/05/07 05:20:36;;;;;;;3.92;3.53;;;19.10;64.80;;;;;;5040849;28;20128;-31
2023/05/07 05:23:05;;;;;;;4.55;3.40;;;20.70;71.30;;;;;;5043564;28;20055;-31
2023/05/07 05:25:32;;;;;;;4.60;3.60;;;20.10;61.40;;;;;;5044911;28;20061;-33
2023/05/07 05:27:59;;;;;;;4.30;3.70;;;19.40;71.50;;;;;;5042427;28;20132;-31
2023/05/07 05:30:25;;;;;;;3.90;3.40;;;19.30;71.40;;;;;;5042869;28;20045;-31
2023/05/07 05:32:52;;;;;;;3.60;3.20;;;20.00;57.40;;;;;;5043505;28;20063;-32
2023/05/07 05:35:19;;;;;;;4.53;3.80;;;19.90;71.00;;;;;;5042361;28;20121;-31
2023/05/07 05:37:45;;;;;;;4.30;3.30;;;19.20;70.60;;;;;;5042532;28;20055;-31
2023/05/07 05:40:14;;;;;;;4.38;3.63;;;19.60;53.00;;;;;;5044096;28;20057;-34
2023/05/07 05:42:41;;;;;;;4.68;3.50;;;18.90;58.20;;;;;;5041966;28;20049;-32
2023/05/07 05:45:09;;;;;;;4.13;3.33;;;20.40;71.70;;;;;;5042299;28;20387;-31
2023/05/07 05:47:36;;;;;;;4.18;3.50;;;19.20;71.40;;;;;;5043862;28;20052;-31
2023/05/07 05:50:03;;;;;;;3.97;3.55;;;;;;;;;;5043379;28;20049;-35
2023/05/07 05:52:30;;;;;;;4.03;3.40;;;19.80;71.00;;;;;;5045843;28;20514;-31
2023/05/07 05:54:57;;;;;;;4.88;3.63;;;;;;;;;;5041326;28;20045;-33
2023/05/07 05:57:25;;;;;;;5.70;3.67;;;19.70;63.80;;;;;;5044487;28;20128;-32
2023/05/07 05:59:52;;;;;;;3.95;3.42;;;19.20;71.60;;;;;;5041370;28;20124;-30
2023/05/07 06:02:19;;;;;;;3.70;3.30;;;19.80;71.40;;;;;;5041576;28;20056;-31
2023/05/07 06:04:45;;;;;;;4.15;3.53;;;19.40;65.70;;;;;;5041859;28;20073;-32
2023/05/07 06:07:12;;;;;;;4.13;3.47;;;19.50;71.80;;;;;;5043235;28;20151;-31
2023/05/07 06:09:39;;;;;;;3.95;3.40;;;19.80;71.10;;;;;;5040839;28;20073;-31
2023/05/07 06:12:06;;;;;;;5.75;3.30;;;19.20;60.10;;;;;;5043268;28;20049;-34
2023/05/07 06:14:34;;;;;;;4.45;3.63;;;19.40;53.10;;;;;;5042454;28;20051;-32
2023/05/07 06:17:00;;;;;;;4.63;4.00;;;19.50;71.00;;;;;;5042675;28;20455;-31
2023/05/07 06:19:28;;;;;;;4.15;3.38;;;;;;;;;;5042402;28;20055;-35
2023/05/07 06:21:56;;;;;;;4.28;3.88;;;19.10;70.60;;;;;;5040891;28;20107;-31
2023/05/07 06:24:22;;;;;;;3.83;3.30;;;19.60;71.00;;;;;;5042423;28;20127;-31
2023/05/07 06:26:49;;;;;;;3.92;3.13;;;19.10;71.60;;;;;;5043002;28;20494;-31
2023/05/07 06:29:16;;;;;;;3.97;3.50;;;19.40;57.30;;;;;;5044704;28;20098;-32
2023/05/07 06:31:44;;;;;;;4.25;3.67;;;19.60;68.70;;;;;;5043012;28;20049;-31
2023/05/07 06:34:13;;;;;;;3.90;3.33;;;19.70;71.10;;;;;;5045820;28;20055;-31
2023/05/07 06:36:40;;;;;;;3.88;3.35;;;19.20;64.00;;;;;;5051866;28;20053;-31
2023/05/07 06:39:07;;;;;;;3.75;3.35;;;18.40;70.40;;;;;;5051863;28;20589;-32
2023/05/07 06:41:34;;;;;;;3.90;3.25;;;19.60;71.10;;;;;;5052134;28;20132;-31
2023/05/07 06:44:01;;;;;;;3.65;3.25;;;19.50;70.90;;;;;;5051939;28;20045;-31
2023/05/07 06:46:28;;;;;;;3.92;3.53;;;19.40;71.70;;;;;;5052058;28;20040;-31
2023/05/07 06:48:56;;;;;;;4.20;3.35;;;19.00;60.40;;;;;;5051830;28;20127;-34
2023/05/07 06:51:23;;;;;;;4.05;3.20;;;18.30;68.40;;;;;;5051915;28;20057;-31
2023/05/07 06:53:50;;;;;;;4.13;3.72;;;19.70;71.90;;;;;;5051984;28;20051;-32
2023/05/07 06:56:17;;;;;;;3.90;3.13;;;;;;;;;;5051500;28;20053;-31
2023/05/07 06:58:44;;;;;;;4.18;3.60;;;19.50;71.00;;;;;;5051951;28;20148;-31
2023/05/07 07:01:10;;;;;;;3.92;3.30;;;19.60;71.00;;;;;;5051711;28;20123;-32
2023/05/07 07:03:37;;;;;;;3.75;3.30;;;19.70;62.10;;;;;;5051498;28;20524;-31
2023/05/07 07:06:05;;;;;;;3.63;3.22;;;19.00;64.30;;;;;;5051992;28;20133;-31
2023/05/07 07:08:32;;;;;;;4.45;3.63;;;19.40;71.70;;;;;;5051535;28;20063;-31
2023/05/07 07:10:59;;;;;;;4.97;3.75;;;;;;;;;;5042101;28;20057;-31
2023/05/07 07:13:26;;;;;;;4.55;3.65;;;19.50;70.90;;;;;;5030982;28;20136;-32
2023/05/07 07:15:53;;;;;;;4.03;3.35;;;;;;;;;;5031830;28;20128;-31
2023/05/07 07:18:21;;;;;;;3.75;3.15;;;;;;;;;;5031720;28;20462;-32
2023/05/07 07:20:48;;;;;;;4.00;3.58;;;;;;;;;;5031798;28;20410;-33
2023/05/07 07:23:16;;;;;;;4.25;3.35;;;19.00;70.60;;;;;;5031455;28;20128;-31
2023/05/07 07:25:42;;;;;;;4.82;3.47;;;19.80;71.20;;;;;;5035603;28;20060;-31
2023/05/07 07:28:10;;;;;;;4.15;3.30;;;;;;;;;;5036766;28;20156;-33
2023/05/07 07:30:37;;;;;;;4.53;3.42;;;19.40;71.80;;;;;;5035342;28;20053;-31
2023/05/07 07:33:04;;;;;;;3.80;3.40;;;;;;;;;;5035571;28;20581;-35
2023/05/07 07:35:31;;;;;;;3.55;3.03;;;20.30;71.40;;;;;;5045027;28;20041;-30
2023/05/07 07:37:58;;;;;;;3.60;3.10;;;20.20;58.70;;;;;;5038983;28;20471;-32
2023/05/07 07:40:26;;;;;;;3.97;3.58;;;19.00;70.70;;;;;;5035146;28;20056;-33
2023/05/07 07:42:53;;;;;;;3.97;3.30;;;20.10;71.70;;;;;;5049639;28;20056;-31
2023/05/07 07:45:20;;;;;;;3.92;3.38;;;19.30;70.90;;;;;;5055121;28;20405;-32
2023/05/07 07:47:46;;;;;;;3.95;3.40;;;19.70;64.40;;;;;;5055200;28;20132;-32
2023/05/07 07:50:13;;;;;;;4.47;3.47;;;19.20;71.20;;;;;;5054769;28;20048;-32
2023/05/07 07:52:40;;;;;;;3.78;3.38;;;;;;;;;;5054495;28;20518;-35
2023/05/07 07:55:08;;;;;;;4.15;3.40;;;19.40;70.90;;;;;;5048344;28;20429;-31
2023/05/07 07:57:36;;;;;;;3.95;3.10;;;19.30;61.80;;;;;;5048843;28;20057;-31
2023/05/07 08:00:03;;;;;;;4.60;3.38;;;19.70;60.20;;;;;;5054299;28;20053;-34
2023/05/07 08:02:30;;;;;;;4.93;3.28;;;19.40;71.00;;;;;;5034840;28;20068;-31
2023/05/07 08:04:57;;;;;;;3.80;3.30;;;19.20;63.90;;;;;;5035901;28;20088;-33
2023/05/07 08:07:24;;;;;;;5.10;3.83;;;;;;;;;;5039798;28;20471;-33
2023/05/07 08:09:51;;;;;;;3.78;3.20;;;;;;;;;;5034259;28;20045;-35
2023/05/07 08:12:18;;;;;;;3.83;3.33;;;19.50;71.40;;;;;;5036274;28;20053;-31
2023/05/07 08:14:46;;;;;;;4.07;3.38;;;19.00;70.80;;;;;;5054899;28;20044;-31
2023/05/07 08:17:15;;;;;;;3.97;3.30;;;19.60;71.10;;;;;;5047813;28;20127;-31
2023/05/07 08:19:42;;;;;;;3.75;3.30;;;18.90;71.00;;;;;;5054526;28;20095;-31
2023/05/07 08:22:09;;;;;;;4.63;3.03;;;18.60;71.40;;;;;;5054869;28;20128;-31
2023/05/07 08:24:36;;;;;;;5.00;3.63;;;;;;;;;;5054639;28;20131;-33
2023/05/07 08:27:02;;;;;;;5.10;3.30;;;18.50;59.80;;;;;;5054449;28;20048;-31
2023/05/07 08:29:29;;;;;;;3.83;3.42;;;18.70;70.90;;;;;;5054874;28;20069;-31
2023/05/07 08:31:57;;;;;;;3.42;2.97;;;19.30;52.90;;;;;;5053484;28;20045;-34
2023/05/07 08:34:24;;;;;;;4.43;3.88;;;19.30;71.70;;;;;;5054459;28;20044;-31
2023/05/07 08:36:51;;;;;;;4.25;3.60;;;18.90;71.40;;;;;;5052996;28;20119;-30
2023/05/07 08:39:18;;;;;;;4.53;3.95;;;;;;;;;;5054032;28;20056;-36
2023/05/07 08:41:46;;;;;;;3.55;3.05;;;18.50;70.80;;;;;;5054193;28;20071;-32
2023/05/07 08:44:13;;;;;;;4.15;3.38;;;19.90;71.90;;;;;;5054221;28;20056;-31
2023/05/07 08:46:40;;;;;;;4.05;3.47;;;19.80;71.10;;;;;;5053277;28;20076;-32
2023/05/07 08:49:08;;;;;;;4.05;3.35;;;19.30;61.20;;;;;;5043730;28;20417;-31
2023/05/07 08:51:35;;;;;;;3.97;3.38;;;18.90;70.60;;;;;;5036397;28;20137;-31
2023/05/07 08:54:02;;;;;;;4.38;3.63;;;19.70;71.50;;;;;;5044293;28;20083;-31
2023/05/07 08:56:28;;;;;;;4.32;3.53;;;19.00;61.30;;;;;;5043519;28;20050;-33
2023/05/07 08:58:58;;;;;;;4.05;3.42;;;;;;;;;;5044389;28;20065;-35
2023/05/07 09:01:25;;;;;;;4.13;3.63;;;19.40;66.60;;;;;;5044392;28;20490;-32
2023/05/07 09:03:51;;;;;;;4.25;3.40;;;19.40;64.30;;;;;;5042240;28;20124;-32
2023/05/07 09:06:19;;;;;;;3.88;3.33;;;19.20;71.20;;;;;;5044441;28;20721;-31
2023/05/07 09:08:50;;;;;;;4.10;3.25;;;19.70;71.40;;;;;;5046835;28;20049;-32
2023/05/07 09:11:17;;;;;;;3.70;3.08;;;;;;;;;;5043266;28;20064;-32
2023/05/07 09:13:44;;;;;;;4.53;3.10;;;18.70;70.60;;;;;;5045639;28;20053;-31
2023/05/07 09:16:12;;;;;;;4.22;3.28;;;18.90;67.60;;;;;;5044109;28;20044;-31
2023/05/07 09:18:42;;;;;;;4.70;3.38;;;19.50;58.10;;;;;;5046495;28;20464;-32
2023/05/07 09:21:10;;;;;;;5.50;3.53;;;19.20;71.10;;;;;;5041920;28;20057;-32
2023/05/07 09:23:39;;;;;;;4.57;3.20;;;19.70;56.10;;;;;;5039617;28;20133;-34
2023/05/07 09:26:08;;;;;;;3.78;2.88;;;20.00;66.80;;;;;;5047960;28;20513;-33
2023/05/07 09:28:35;;;;;;;3.70;3.30;;;19.50;71.50;;;;;;5044062;28;20040;-31
2023/05/07 09:31:01;;;;;;;3.55;3.00;;;19.30;56.30;;;;;;5043061;28;20104;-33
2023/05/07 09:33:29;;;;;;;3.58;3.15;;;19.70;71.20;;;;;;5041810;28;20432;-31
2023/05/07 09:35:56;;;;;;;4.45;3.20;;;19.60;66.70;;;;;;5044545;28;20041;-31
2023/05/07 09:38:23;;;;;;;3.20;2.90;;;19.60;72.00;;;;;;5044054;28;20413;-31
2023/05/07 09:41:02;;;;;;;3.92;3.20;;;19.30;53.30;;;;;;5043875;28;20046;-34
2023/05/07 09:43:28;;;;;;;3.90;3.00;;;18.80;71.70;;;;;;5043312;28;20124;-36
2023/05/07 09:45:55;;;;;;;4.35;3.00;;;19.70;71.70;;;;;;5041176;28;20045;-37
2023/05/07 09:48:22;;;;;;;5.03;2.85;;;;;;;;;;5041920;28;20124;-36
2023/05/07 09:50:50;;;;;;;6.47;3.22;;;19.60;53.40;;;;;;5045388;28;20055;-36
2023/05/07 09:53:17;;;;;;;4.15;3.20;;;;;;;;;;5047539;28;20057;-34
2023/05/07 09:55:44;;;;;;;3.50;3.05;;;20.00;71.60;;;;;;5047406;28;20045;-37
2023/05/07 09:58:12;;;;;;;3.13;2.83;;;18.60;69.50;;;;;;5040460;28;20081;-37
2023/05/07 10:00:39;;;;;;;3.67;2.70;;;18.40;70.80;;;;;;5052605;28;20053;-38
2023/05/07 10:03:06;;;;;;;3.90;3.00;;;;;;;;;;5046027;28;20041;-35
2023/05/07 10:05:33;;;;;;;3.45;2.75;;;19.10;58.60;;;;;;5032752;28;20125;-40
2023/05/07 10:08:00;;;;;;;3.55;2.92;;;19.00;70.70;;;;;;5032705;28;20469;-40
2023/05/07 10:10:27;;;;;;;4.32;2.95;;;19.80;65.30;;;;;;5032652;28;20132;-36
2023/05/07 10:12:54;;;;;;;3.30;2.85;;;;;;;;;;5032664;28;20132;-36
2023/05/07 10:15:24;;;;;;;3.10;2.75;;;19.50;58.80;;;;;;5039864;28;20071;-34
2023/05/07 10:17:51;;;;;;;4.28;2.58;;;;;;;;;;5052482;28;20419;-38
2023/05/07 10:20:18;;;;;;;5.50;2.97;;;19.60;71.00;;;;;;5036164;28;20068;-37
2023/05/07 10:22:48;;;;;;;3.13;2.75;;;19.70;71.50;;;;;;5032395;28;20132;-40
2023/05/07 10:25:18;;;;;;;3.28;2.83;;;19.40;64.70;;;;;;5032599;28;20128;-36
2023/05/07 10:27:45;;;;;;;3.80;3.03;;;19.30;70.90;;;;;;5033412;28;20061;-38
2023/05/07 10:30:16;;;;;;;5.80;2.75;;;19.80;70.80;;;;;;5050332;28;20561;-36
2023/05/07 10:32:46;;;;;;;3.50;3.00;;;19.60;71.30;;;;;;5032510;28;20045;-37
2023/05/07 10:35:16;;;;;;;3.10;2.80;;;19.10;70.50;;;;;;5037326;28;20041;-39
2023/05/07 10:37:43;;;;;;;3.63;2.83;;;20.50;71.30;;;;;;5052100;28;20128;-39
2023/05/07 10:40:11;;;;;;;3.05;2.75;;;20.20;61.80;;;;;;5043611;28;20053;-36
2023/05/07 10:42:37;;;;;;;3.17;2.80;;;18.20;52.60;;;;;;5034981;28;20409;-37
2023/05/07 10:45:14;;;;;;;3.55;3.03;;;19.80;71.70;;;;;;5041144;28;20512;-36
2023/05/07 10:48:10;;;;;;;4.03;2.85;;;19.00;67.40;;;;;;5034430;28;20048;-36
2023/05/07 10:50:37;;;;;;;3.70;2.85;;;;;;;;;;5039820;28;20051;-39
2023/05/07 10:53:28;;;;;;;4.18;2.53;;;19.50;53.00;;;;;;5036615;28;20049;-36
2023/05/07 10:56:29;;;;;;;3.05;2.75;;;20.30;71.40;;;;;;5038092;28;20040;-38
2023/05/07 10:58:55;;;;;;;4.20;2.70;;;19.10;71.40;;;;;;5038726;28;20051;-39
2023/05/07 11:01:50;;;;;;;4.25;3.00;;;20.70;57.70;;;;;;5050013;28;20087;-36
2023/05/07 11:04:24;;;;;;;4.32;2.92;;;19.50;72.00;;;;;;5034628;28;20487;-38
2023/05/07 11:07:32;;;;;;;4.03;3.30;;;19.80;64.30;;;;;;5031610;28;20054;-36
2023/05/07 11:10:05;;;;;;;3.35;2.97;;;21.90;54.40;;;;;;5031352;28;20046;-38
2023/05/07 11:12:51;;;;;;;4.45;3.50;;;19.90;71.90;;;;;;5035518;28;20048;-35
2023/05/07 11:15:36;;;;;;;4.00;3.10;;;19.90;71.60;;;;;;5031874;28;20418;-40
2023/05/07 11:18:04;;;;;;;5.40;3.10;;;;;;;;;;5031947;28;20053;-37
2023/05/07 11:20:51;;;;;;;4.35;2.83;;;19.50;55.20;;;;;;5041974;28;20056;-36
2023/05/07 11:23:56;;;;;;;5.75;3.17;;;19.70;71.30;;;;;;5049310;28;20128;-38
2023/05/07 11:26:22;;;;;;;4.18;3.05;;;19.50;71.60;;;;;;5040169;28;20414;-37
2023/05/07 11:28:49;;;;;;;3.20;2.83;;;20.10;55.60;;;;;;5050582;28;20055;-35
2023/05/07 11:31:16;;;;;;;4.35;2.80;;;19.20;71.10;;;;;;5051390;28;20049;-40
2023/05/07 11:33:43;;;;;;;5.32;3.10;;;;;;;;;;5050096;28;20124;-39
2023/05/07 11:36:11;;;;;;;4.93;2.80;;;20.20;71.60;;;;;;5033797;28;20052;-38
2023/05/07 11:38:38;;;;;;;4.15;2.90;;;19.80;70.40;;;;;;5051295;28;20048;-40
2023/05/07 11:41:05;;;;;;;4.07;3.10;;;20.90;70.90;;;;;;5051562;28;20581;-38
2023/05/07 11:43:32;;;;;;;4.63;3.00;;;19.70;62.40;;;;;;5040310;28;20406;-37
2023/05/07 11:46:06;;;;;;;4.72;3.05;;;20.30;71.30;;;;;;5031732;28;20148;-35
2023/05/07 11:48:32;;;;;;;5.77;3.20;;;19.50;70.90;;;;;;5036343;28;20127;-36
2023/05/07 11:51:01;;;;;;;5.40;3.38;;;19.70;70.10;;;;;;5044160;28;20760;-38
2023/05/07 11:53:38;;;;;;;4.72;3.10;;;19.60;70.20;;;;;;5031297;28;20421;-38
2023/05/07 11:56:08;;;;;;;4.70;3.05;;;19.60;69.80;;;;;;5031749;28;20494;-38
2023/05/07 11:58:35;;;;;;;3.50;2.78;;;;;;;;;;5034406;28;20140;-36
2023/05/07 12:01:01;;;;;;;3.55;2.83;;;19.70;69.90;;;;;;5051100;28;20558;-38
2023/05/07 12:03:28;;;;;;;6.75;3.10;;;;;;;;;;5041069;28;20055;-36
2023/05/07 12:05:55;;;;;;;3.35;2.70;;;;;;;;;;5032306;28;20229;-38
2023/05/07 12:08:22;;;;;;;3.92;2.90;;;19.60;54.50;;;;;;5031094;28;20140;-36
2023/05/07 12:10:51;;;;;;;3.97;2.65;;;20.40;70.20;;;;;;5031775;28;20132;-39
2023/05/07 12:13:18;;;;;;;3.78;2.85;;;19.90;55.40;;;;;;5049123;28;20133;-40
2023/05/07 12:15:45;;;;;;;5.47;2.95;;;20.10;59.30;;;;;;5055055;28;20132;-36
2023/05/07 12:18:12;;;;;;;5.22;2.97;;;;;;;;;;5042418;28;20128;-36
2023/05/07 12:20:39;;;;;;;3.88;3.10;;;;;;;;;;5036098;28;20060;-34
2023/05/07 12:23:06;;;;;;;3.83;3.00;;;19.10;70.40;;;;;;5040626;28;20048;-38
2023/05/07 12:25:33;;;;;;;3.47;2.90;;;;;;;;;;5042116;28;20045;-38
2023/05/07 12:28:04;;;;;;;4.43;3.05;;;19.60;52.10;;;;;;5034880;28;20052;-36
2023/05/07 12:30:31;;;;;;;4.20;2.88;;;19.70;61.50;;;;;;5034488;28;20451;-38
2023/05/07 12:32:58;;;;;;;3.40;3.00;;;19.80;69.70;;;;;;5049739;28;20079;-37
2023/05/07 12:35:28;;;;;;;4.10;2.80;;;20.90;70.30;;;;;;5044740;28;20050;-35
2023/05/07 12:37:59;;;;;;;4.35;2.85;;;20.10;69.90;;;;;;5048183;28;20144;-37
2023/05/07 12:40:34;;;;;;;4.90;3.20;;;20.20;70.70;;;;;;5034440;28;20046;-36
2023/05/07 12:43:02;;;;;;;4.05;3.30;;;20.30;70.30;;;;;;5034267;28;20056;-39
2023/05/07 12:45:29;;;;;;;4.30;3.20;;;;;;;;;;5034815;28;20128;-37
2023/05/07 12:47:56;;;;;;;4.00;3.08;;;20.60;70.90;;;;;;5053940;28;20128;-36
2023/05/07 12:50:23;;;;;;;4.53;3.00;;;20.30;69.90;;;;;;5054076;28;20520;-38
2023/05/07 12:52:50;;;;;;;3.40;2.95;;;19.70;64.70;;;;;;5048586;28;20099;-36
2023/05/07 12:55:17;;;;;;;5.38;2.90;;;19.90;62.30;;;;;;5034525;28;20125;-40
2023/05/07 12:57:44;;;;;;;3.15;2.70;;;20.20;52.20;;;;;;5034268;28;20132;-34
2023/05/07 13:00:14;;;;;;;2.85;2.53;;;20.30;68.10;;;;;;5038032;28;20048;-37
2023/05/07 13:02:41;;;;;;;4.72;3.10;;;20.20;70.20;;;;;;5045976;28;20049;-39
2023/05/07 13:05:08;;;;;;;5.43;2.85;;;;;;;;;;5053125;28;20128;-38
2023/05/07 13:07:36;;;;;;;4.38;3.40;;;19.00;69.30;;;;;;5053220;28;20136;-38
2023/05/07 13:10:03;;;;;;;4.10;3.10;;;20.90;71.10;;;;;;5053883;28;20060;-38
2023/05/07 13:12:30;;;;;;;3.33;2.80;;;;;;;;;;5052350;28;20045;-33